createdAt,value
2023-04-09T00:01:50.325Z,11.30
2023-04-09T00:06:42.856Z,11.30
2023-04-09T00:11:36.254Z,11.20
2023-04-09T00:16:28.786Z,11.60
2023-04-09T00:21:22.743Z,12.17
2023-04-09T00:26:15.390Z,12.57
2023-04-09T00:31:08.196Z,12.70
2023-04-09T00:36:01.006Z,13.73
2023-04-09T00:40:54.952Z,16.90
2023-04-09T00:45:47.829Z,15.73
2023-04-09T00:50:40.648Z,15.83
2023-04-09T00:55:33.940Z,15.37
2023-04-09T01:00:28.063Z,15.80
2023-04-09T01:05:20.976Z,14.60
2023-04-09T01:10:16.828Z,14.93
2023-04-09T01:15:10.979Z,15.53
2023-04-09T01:20:08.495Z,14.70
2023-04-09T01:25:10.391Z,14.73
2023-04-09T01:30:11.426Z,14.30
2023-04-09T01:35:04.866Z,14.93
2023-04-09T01:39:57.613Z,14.47
2023-04-09T01:44:50.426Z,15.03
2023-04-09T01:49:45.636Z,13.20
2023-04-09T01:54:38.305Z,14.07
2023-04-09T01:59:31.064Z,13.73
2023-04-09T02:04:25.103Z,13.40
2023-04-09T02:09:21.266Z,12.63
2023-04-09T02:14:14.161Z,13.30
2023-04-09T02:19:06.790Z,12.20
2023-04-09T02:23:59.400Z,12.60
2023-04-09T02:28:53.755Z,13.70
2023-04-09T02:33:46.667Z,13.80
2023-04-09T02:38:41.547Z,12.37
2023-04-09T02:43:34.204Z,13.17
2023-04-09T02:48:28.160Z,13.00
2023-04-09T02:53:21.506Z,13.10
2023-04-09T02:58:14.072Z,12.10
2023-04-09T03:03:06.776Z,12.77
2023-04-09T03:08:00.858Z,12.60
2023-04-09T03:12:53.400Z,12.47
2023-04-09T03:17:46.080Z,13.50
2023-04-09T03:22:38.767Z,12.67
2023-04-09T03:27:42.767Z,15.10
2023-04-09T03:32:39.301Z,14.23
2023-04-09T03:37:32.774Z,15.20
2023-04-09T03:42:25.578Z,15.00
2023-04-09T03:47:19.629Z,14.90
2023-04-09T03:52:12.394Z,14.63
2023-04-09T03:57:09.039Z,14.90
2023-04-09T04:02:05.366Z,13.50
2023-04-09T04:07:03.591Z,14.40
2023-04-09T04:12:02.170Z,13.03
2023-04-09T04:17:11.625Z,14.60
2023-04-09T04:22:05.884Z,14.63
2023-04-09T04:27:03.423Z,14.93
2023-04-09T04:32:00.392Z,15.13
2023-04-09T04:36:59.388Z,16.37
2023-04-09T04:41:57.870Z,15.10
2023-04-09T04:46:53.317Z,16.60
2023-04-09T04:51:45.850Z,17.30
2023-04-09T04:56:41.020Z,17.23
2023-04-09T05:01:43.799Z,16.00
2023-04-09T05:06:38.928Z,17.07
2023-04-09T05:11:36.018Z,17.77
2023-04-09T05:16:32.106Z,17.70
2023-04-09T05:21:32.648Z,18.10
2023-04-09T05:26:26.892Z,17.60
2023-04-09T05:31:23.275Z,17.10
2023-04-09T05:36:27.294Z,17.60
2023-04-09T05:41:21.354Z,14.47
2023-04-09T05:46:34.216Z,13.50
2023-04-09T05:51:27.344Z,13.07
2023-04-09T05:56:23.653Z,12.83
2023-04-09T06:01:21.084Z,12.90
2023-04-09T06:06:15.393Z,14.00
2023-04-09T06:11:10.402Z,13.30
2023-04-09T06:16:06.510Z,13.30
2023-04-09T06:21:02.583Z,14.33
2023-04-09T06:25:55.307Z,14.47
2023-04-09T06:30:49.017Z,14.00
2023-04-09T06:35:42.985Z,15.03
2023-04-09T06:40:35.698Z,14.23
2023-04-09T06:45:28.368Z,13.80
2023-04-09T06:50:20.929Z,12.90
2023-04-09T06:55:14.886Z,13.50
2023-04-09T07:00:08.215Z,13.40
2023-04-09T07:05:00.876Z,14.27
2023-04-09T07:09:53.798Z,14.10
2023-04-09T07:14:47.777Z,13.47
2023-04-09T07:19:40.665Z,13.80
2023-04-09T07:24:33.264Z,14.53
2023-04-09T07:29:26.006Z,13.93
2023-04-09T07:34:20.021Z,13.53
2023-04-09T07:39:12.587Z,14.27
2023-04-09T07:44:06.312Z,13.90
2023-04-09T07:48:59.020Z,12.70
2023-04-09T07:53:52.921Z,13.30
2023-04-09T07:58:45.900Z,12.87
2023-04-09T08:03:38.553Z,12.50
2023-04-09T08:08:31.272Z,12.27
2023-04-09T08:13:25.660Z,12.50
2023-04-09T08:18:18.350Z,11.60
2023-04-09T08:23:11.116Z,11.50
2023-04-09T08:28:04.373Z,12.37
2023-04-09T08:32:58.300Z,12.93
2023-04-09T08:37:51.089Z,12.37
2023-04-09T08:42:45.860Z,12.50
2023-04-09T08:47:39.077Z,11.50
2023-04-09T08:52:35.981Z,10.90
2023-04-09T08:57:28.658Z,11.53
2023-04-09T09:02:21.376Z,11.97
2023-04-09T09:07:14.075Z,12.27
2023-04-09T09:12:08.541Z,11.13
2023-04-09T09:17:05.414Z,10.30
2023-04-09T09:21:58.625Z,9.30
2023-04-09T09:26:51.412Z,9.23
2023-04-09T09:31:49.446Z,8.33
2023-04-09T09:36:42.304Z,8.40
2023-04-09T09:41:34.943Z,8.53
2023-04-09T09:46:28.452Z,8.00
2023-04-09T09:51:24.919Z,8.33
2023-04-09T09:56:20.172Z,7.00
2023-04-09T10:01:14.354Z,8.33
2023-04-09T10:06:07.705Z,8.30
2023-04-09T10:11:01.863Z,7.70
2023-04-09T10:15:54.864Z,8.27
2023-04-09T10:20:49.554Z,8.20
2023-04-09T10:25:42.343Z,5.63
2023-04-09T10:30:37.376Z,5.83
2023-04-09T10:35:30.135Z,4.90
2023-04-09T10:40:23.139Z,4.20
2023-04-09T10:45:17.565Z,4.93
2023-04-09T10:50:19.004Z,4.40
2023-04-09T10:55:30.581Z,4.67
2023-04-09T11:00:23.367Z,4.73
2023-04-09T11:05:22.751Z,4.80
2023-04-09T11:10:15.372Z,5.40
2023-04-09T11:15:16.295Z,5.60
2023-04-09T11:20:09.098Z,5.67
2023-04-09T11:25:04.586Z,5.57
2023-04-09T11:29:57.167Z,5.00
2023-04-09T11:34:53.378Z,4.80
2023-04-09T11:39:46.182Z,5.40
2023-04-09T11:44:41.015Z,5.40
2023-04-09T11:49:33.814Z,5.33
2023-04-09T11:54:26.463Z,6.00
2023-04-09T11:59:19.115Z,5.70
2023-04-09T12:04:20.446Z,6.07
2023-04-09T12:09:14.193Z,6.17
2023-04-09T12:14:06.882Z,5.63
2023-04-09T12:19:01.631Z,5.97
2023-04-09T12:23:55.929Z,6.07
2023-04-09T12:28:48.541Z,6.70
2023-04-09T12:33:41.283Z,6.30
2023-04-09T12:38:33.873Z,6.53
2023-04-09T12:43:27.953Z,5.97
2023-04-09T12:48:20.949Z,6.30
2023-04-09T12:53:13.612Z,6.63
2023-04-09T12:58:06.794Z,5.80
2023-04-09T13:03:01.787Z,7.13
2023-04-09T13:07:54.540Z,6.70
2023-04-09T13:12:47.067Z,6.50
2023-04-09T13:17:39.740Z,5.80
2023-04-09T13:22:33.667Z,4.90
2023-04-09T13:27:26.516Z,6.50
2023-04-09T13:32:21.784Z,6.03
2023-04-09T13:37:14.617Z,6.53
2023-04-09T13:42:13.772Z,6.17
2023-04-09T13:47:07.099Z,5.63
2023-04-09T13:51:59.721Z,6.07
2023-04-09T13:56:52.352Z,6.47
2023-04-09T14:01:46.391Z,6.20
2023-04-09T14:06:39.093Z,5.40
2023-04-09T14:11:31.653Z,6.13
2023-04-09T14:16:24.403Z,5.70
2023-04-09T14:21:19.159Z,5.13
2023-04-09T14:26:12.027Z,5.73
2023-04-09T14:31:04.968Z,5.50
2023-04-09T14:35:58.682Z,5.40
2023-04-09T14:40:52.878Z,5.70
2023-04-09T14:45:45.461Z,5.40
2023-04-09T14:50:38.139Z,5.33
2023-04-09T14:55:30.858Z,5.07
2023-04-09T15:00:24.757Z,5.20
2023-04-09T15:05:17.345Z,4.90
2023-04-09T15:10:10.456Z,5.70
2023-04-09T15:15:06.126Z,5.70
2023-04-09T15:20:00.404Z,5.30
2023-04-09T15:24:53.007Z,4.57
2023-04-09T15:29:45.980Z,4.83
2023-04-09T15:34:38.973Z,5.20
2023-04-09T15:39:33.393Z,4.47
2023-04-09T15:44:26.870Z,4.67
2023-04-09T15:49:19.808Z,4.60
2023-04-09T15:54:12.388Z,4.20
2023-04-09T15:59:07.752Z,4.67
2023-04-09T16:04:00.372Z,4.87
2023-04-09T16:08:53.113Z,5.30
2023-04-09T16:13:46.187Z,4.83
2023-04-09T16:18:40.212Z,4.67
2023-04-09T16:23:33.235Z,4.87
2023-04-09T16:28:26.420Z,4.90
2023-04-09T16:33:19.137Z,5.13
2023-04-09T16:38:13.632Z,4.47
2023-04-09T16:43:06.243Z,4.90
2023-04-09T16:47:58.966Z,4.57
2023-04-09T16:52:51.574Z,4.77
2023-04-09T16:57:45.554Z,4.50
2023-04-09T17:02:38.349Z,5.10
2023-04-09T17:07:31.376Z,4.87
2023-04-09T17:12:27.772Z,4.73
2023-04-09T17:17:22.024Z,5.00
2023-04-09T17:22:15.016Z,4.60
2023-04-09T17:27:08.381Z,4.70
2023-04-09T17:32:00.955Z,4.83
2023-04-09T17:36:57.180Z,5.23
2023-04-09T17:41:49.883Z,4.80
2023-04-09T17:46:43.764Z,4.80
2023-04-09T17:51:36.977Z,4.93
2023-04-09T17:56:31.053Z,4.93
2023-04-09T18:01:23.917Z,4.97
2023-04-09T18:06:17.414Z,4.93
2023-04-09T18:11:13.128Z,5.20
2023-04-09T18:16:10.634Z,5.27
2023-04-09T18:21:03.387Z,5.33
2023-04-09T18:25:56.272Z,4.50
2023-04-09T18:30:49.077Z,5.10
2023-04-09T18:35:43.137Z,6.80
2023-04-09T18:40:40.848Z,6.43
2023-04-09T18:45:33.375Z,6.60
2023-04-09T18:50:26.353Z,6.70
2023-04-09T18:55:20.733Z,5.53
2023-04-09T19:00:13.853Z,5.40
2023-04-09T19:05:07.446Z,5.90
2023-04-09T19:10:00.427Z,5.70
2023-04-09T19:14:54.694Z,5.90
2023-04-09T19:19:47.586Z,6.27
2023-04-09T19:24:40.249Z,5.87
2023-04-09T19:29:33.005Z,6.00
2023-04-09T19:34:26.895Z,6.13
2023-04-09T19:39:19.893Z,6.10
2023-04-09T19:44:12.631Z,6.27
2023-04-09T19:49:05.162Z,6.67
2023-04-09T19:53:59.120Z,6.00
2023-04-09T19:58:51.968Z,6.17
2023-04-09T20:03:44.860Z,6.97
2023-04-09T20:08:37.782Z,6.97
2023-04-09T20:13:31.812Z,6.27
2023-04-09T20:18:24.441Z,8.63
2023-04-09T20:23:17.005Z,7.17
2023-04-09T20:28:10.888Z,6.70
2023-04-09T20:33:04.906Z,6.47
2023-04-09T20:37:57.567Z,6.93
2023-04-09T20:42:50.562Z,6.43
2023-04-09T20:47:43.250Z,6.90
2023-04-09T20:52:38.914Z,6.70
2023-04-09T20:57:35.141Z,6.00
2023-04-09T21:02:27.830Z,7.57
2023-04-09T21:07:20.752Z,7.13
2023-04-09T21:12:14.702Z,5.93
2023-04-09T21:17:07.503Z,6.90
2023-04-09T21:22:00.338Z,7.20
2023-04-09T21:26:52.987Z,6.60
2023-04-09T21:31:46.981Z,6.87
2023-04-09T21:36:39.809Z,6.70
2023-04-09T21:41:32.379Z,7.50
2023-04-09T21:46:25.122Z,7.10
2023-04-09T21:51:19.067Z,7.40
2023-04-09T21:56:11.639Z,7.63
2023-04-09T22:01:05.174Z,7.57
2023-04-09T22:05:57.916Z,8.10
2023-04-09T22:10:52.366Z,7.90
2023-04-09T22:15:45.247Z,7.00
2023-04-09T22:20:37.924Z,7.53
2023-04-09T22:25:34.829Z,7.43
2023-04-09T22:30:28.874Z,7.53
2023-04-09T22:35:21.403Z,8.00
2023-04-09T22:40:14.989Z,7.50
2023-04-09T22:45:08.212Z,7.83
2023-04-09T22:50:02.743Z,8.30
2023-04-09T22:54:55.516Z,7.43
2023-04-09T22:59:48.063Z,7.40
2023-04-09T23:04:40.588Z,7.60
2023-04-09T23:09:34.602Z,7.83
2023-04-09T23:14:27.198Z,7.93
2023-04-09T23:19:19.751Z,7.77
2023-04-09T23:24:12.327Z,8.17
2023-04-09T23:29:06.234Z,7.80
2023-04-09T23:33:58.919Z,8.30
2023-04-09T23:38:51.550Z,8.20
2023-04-09T23:43:44.120Z,8.67
2023-04-09T23:48:38.103Z,8.30
2023-04-09T23:53:30.682Z,7.70
2023-04-09T23:58:23.198Z,7.63
